createdAt,value
2016-09-15T00:00:30.157Z,0
2016-09-15T00:01:29.833Z,0
2016-09-15T00:02:30.096Z,0
2016-09-15T00:03:29.772Z,0
2016-09-15T00:04:29.441Z,0
2016-09-15T00:05:29.713Z,0
2016-09-15T00:06:29.681Z,0
2016-09-15T00:07:29.653Z,0
2016-09-15T00:08:29.019Z,0
2016-09-15T00:09:29.605Z,0
2016-09-15T00:10:29.571Z,0
2016-09-15T00:11:29.539Z,0
2016-09-15T00:12:29.804Z,0
2016-09-15T00:13:29.170Z,0
2016-09-15T00:14:29.139Z,0
2016-09-15T00:15:29.413Z,0
2016-09-15T00:16:29.085Z,0
2016-09-15T00:17:29.354Z,0
2016-09-15T00:18:29.324Z,0
2016-09-15T00:19:29.311Z,0
2016-09-15T00:20:29.565Z,0
2016-09-15T00:21:29.541Z,0
2016-09-15T00:22:29.508Z,0
2016-09-15T00:23:29.485Z,0
2016-09-15T00:24:29.448Z,0
2016-09-15T00:25:29.119Z,0
2016-09-15T00:26:28.793Z,0
2016-09-15T00:27:29.066Z,0
2016-09-15T00:28:29.353Z,0
2016-09-15T00:29:29.008Z,0
2016-09-15T00:30:29.270Z,0
2016-09-15T00:31:28.946Z,0
2016-09-15T00:32:28.920Z,0
2016-09-15T00:33:29.189Z,0
2016-09-15T00:34:28.850Z,0
2016-09-15T00:35:28.523Z,0
2016-09-15T00:36:28.795Z,0
2016-09-15T00:37:28.763Z,0
2016-09-15T00:38:28.427Z,0
2016-09-15T00:39:29.029Z,0
2016-09-15T00:40:28.977Z,0
2016-09-15T00:41:28.344Z,0
2016-09-15T00:42:28.925Z,0
2016-09-15T00:43:28.290Z,0
2016-09-15T00:44:28.553Z,0
2016-09-15T00:45:28.528Z,0
2016-09-15T00:46:28.497Z,0
2016-09-15T00:47:28.471Z,0
2016-09-15T00:48:28.448Z,0
2016-09-15T00:49:28.115Z,0
2016-09-15T00:50:28.388Z,0
2016-09-15T00:51:28.646Z,0
2016-09-15T00:52:28.615Z,0
2016-09-15T00:53:28.302Z,0
2016-09-15T00:54:28.560Z,0
2016-09-15T00:55:28.228Z,0
2016-09-15T00:56:28.501Z,0
2016-09-15T00:57:28.470Z,0
2016-09-15T00:58:28.141Z,0
2016-09-15T00:59:28.113Z,0
2016-09-15T01:00:28.388Z,0
2016-09-15T01:01:28.349Z,0
2016-09-15T01:02:28.321Z,0
2016-09-15T01:03:27.692Z,0
2016-09-15T01:04:28.263Z,0
2016-09-15T01:05:27.625Z,0
2016-09-15T01:06:27.297Z,0
2016-09-15T01:07:27.870Z,0
2016-09-15T01:08:28.144Z,0
2016-09-15T01:09:27.815Z,0
2016-09-15T01:10:27.781Z,0
2016-09-15T01:11:27.447Z,0
2016-09-15T01:12:28.016Z,0
2016-09-15T01:13:27.392Z,0
2016-09-15T01:14:27.965Z,0
2016-09-15T01:15:27.332Z,0
2016-09-15T01:16:27.609Z,0
2016-09-15T01:17:27.579Z,0
2016-09-15T01:18:26.944Z,0
2016-09-15T01:19:27.816Z,0
2016-09-15T01:20:27.484Z,0
2016-09-15T01:21:27.752Z,0
2016-09-15T01:22:27.436Z,0
2016-09-15T01:23:26.488Z,0
2016-09-15T01:24:27.364Z,0
2016-09-15T01:25:27.038Z,0
2016-09-15T01:26:27.612Z,0
2016-09-15T01:27:27.276Z,0
2016-09-15T01:28:27.551Z,0
2016-09-15T01:29:27.522Z,0
2016-09-15T01:30:27.192Z,0
2016-09-15T01:31:26.862Z,0
2016-09-15T01:32:27.430Z,0
2016-09-15T01:33:27.099Z,0
2016-09-15T01:34:27.365Z,0
2016-09-15T01:35:27.038Z,0
2016-09-15T01:36:27.306Z,0
2016-09-15T01:37:27.289Z,0
2016-09-15T01:38:27.252Z,0
2016-09-15T01:39:26.632Z,0
2016-09-15T01:40:27.185Z,0
2016-09-15T01:41:26.877Z,0
2016-09-15T01:42:26.526Z,0
2016-09-15T01:43:26.809Z,0
2016-09-15T01:44:26.473Z,0
2016-09-15T01:45:26.758Z,0
2016-09-15T01:46:26.399Z,0
2016-09-15T01:47:26.075Z,0
2016-09-15T01:48:26.346Z,0
2016-09-15T01:49:26.921Z,0
2016-09-15T01:50:26.893Z,0
2016-09-15T01:51:26.557Z,0
2016-09-15T01:52:26.828Z,0
2016-09-15T01:53:26.513Z,0
2016-09-15T01:54:26.463Z,0
2016-09-15T01:55:26.440Z,0
2016-09-15T01:56:26.406Z,0
2016-09-15T01:57:26.681Z,0
2016-09-15T01:58:26.351Z,0
2016-09-15T01:59:26.317Z,0
2016-09-15T02:00:26.286Z,0
2016-09-15T02:01:26.256Z,0
2016-09-15T02:02:26.226Z,0
2016-09-15T02:03:26.499Z,0
2016-09-15T02:04:26.467Z,0
2016-09-15T02:05:26.136Z,0
2016-09-15T02:06:26.411Z,0
2016-09-15T02:07:26.378Z,0
2016-09-15T02:08:25.744Z,0
2016-09-15T02:09:26.315Z,0
2016-09-15T02:10:25.992Z,0
2016-09-15T02:11:25.960Z,0
2016-09-15T02:12:25.922Z,0
2016-09-15T02:13:25.899Z,0
2016-09-15T02:14:26.167Z,0
2016-09-15T02:15:25.855Z,0
2016-09-15T02:16:26.105Z,0
2016-09-15T02:17:25.782Z,0
2016-09-15T02:18:25.747Z,0
2016-09-15T02:19:25.721Z,0
2016-09-15T02:20:25.380Z,0
2016-09-15T02:21:25.964Z,0
2016-09-15T02:22:25.628Z,0
2016-09-15T02:23:25.602Z,0
2016-09-15T02:24:25.874Z,0
2016-09-15T02:25:25.242Z,0
2016-09-15T02:26:25.500Z,0
2016-09-15T02:27:25.794Z,0
2016-09-15T02:28:25.143Z,0
2016-09-15T02:29:25.723Z,0
2016-09-15T02:30:25.687Z,0
2016-09-15T02:31:25.670Z,0
2016-09-15T02:32:25.625Z,0
2016-09-15T02:33:25.295Z,0
2016-09-15T02:34:25.267Z,0
2016-09-15T02:35:25.235Z,0
2016-09-15T02:36:24.905Z,0
2016-09-15T02:37:24.874Z,0
2016-09-15T02:38:25.144Z,0
2016-09-15T02:39:25.415Z,0
2016-09-15T02:40:25.082Z,0
2016-09-15T02:41:25.056Z,0
2016-09-15T02:42:25.324Z,0
2016-09-15T02:43:24.999Z,0
2016-09-15T02:44:25.270Z,0
2016-09-15T02:45:24.641Z,0
2016-09-15T02:46:24.900Z,0
2016-09-15T02:47:24.873Z,0
2016-09-15T02:48:24.539Z,0
2016-09-15T02:49:25.129Z,0
2016-09-15T02:50:24.780Z,0
2016-09-15T02:51:24.447Z,0
2016-09-15T02:52:24.414Z,0
2016-09-15T02:53:24.689Z,0
2016-09-15T02:54:24.957Z,0
2016-09-15T02:55:24.937Z,0
2016-09-15T02:56:24.289Z,0
2016-09-15T02:57:24.568Z,0
2016-09-15T02:58:24.237Z,0
2016-09-15T02:59:24.512Z,0
2016-09-15T03:00:24.779Z,0
2016-09-15T03:01:24.450Z,0
2016-09-15T03:02:24.417Z,0
2016-09-15T03:03:24.690Z,0
2016-09-15T03:04:24.353Z,0
2016-09-15T03:05:24.333Z,0
2016-09-15T03:06:24.297Z,0
2016-09-15T03:07:23.967Z,0
2016-09-15T03:08:24.537Z,0
2016-09-15T03:09:24.516Z,0
2016-09-15T03:10:23.875Z,0
2016-09-15T03:11:24.445Z,0
2016-09-15T03:12:24.418Z,0
2016-09-15T03:13:24.399Z,0
2016-09-15T03:14:24.055Z,0
2016-09-15T03:15:23.718Z,0
2016-09-15T03:16:24.290Z,0
2016-09-15T03:17:23.961Z,0
2016-09-15T03:18:24.243Z,0
2016-09-15T03:19:24.207Z,0
2016-09-15T03:20:24.172Z,0
2016-09-15T03:21:23.841Z,0
2016-09-15T03:22:24.112Z,0
2016-09-15T03:23:24.080Z,0
2016-09-15T03:24:24.048Z,0
2016-09-15T03:25:24.034Z,0
2016-09-15T03:26:23.687Z,0
2016-09-15T03:27:23.981Z,0
2016-09-15T03:28:23.632Z,0
2016-09-15T03:29:23.897Z,0
2016-09-15T03:30:23.573Z,0
2016-09-15T03:31:23.529Z,0
2016-09-15T03:32:23.815Z,0
2016-09-15T03:33:23.472Z,0
2016-09-15T03:34:23.754Z,0
2016-09-15T03:35:23.415Z,0
2016-09-15T03:36:23.690Z,0
2016-09-15T03:37:23.663Z,0
2016-09-15T03:38:23.030Z,0
2016-09-15T03:39:23.290Z,0
2016-09-15T03:40:23.569Z,0
2016-09-15T03:41:23.543Z,0
2016-09-15T03:42:23.500Z,0
2016-09-15T03:43:23.470Z,0
2016-09-15T03:44:23.431Z,0
2016-09-15T03:45:23.115Z,0
2016-09-15T03:46:22.771Z,0
2016-09-15T03:47:23.361Z,0
2016-09-15T03:48:22.410Z,0
2016-09-15T03:49:22.391Z,0
2016-09-15T03:50:22.677Z,0
2016-09-15T03:51:22.341Z,0
2016-09-15T03:52:22.901Z,0
2016-09-15T03:53:22.919Z,0
2016-09-15T03:54:23.149Z,0
2016-09-15T03:55:22.803Z,0
2016-09-15T03:56:22.472Z,0
2016-09-15T03:57:22.152Z,0
2016-09-15T03:58:22.713Z,0
2016-09-15T03:59:22.375Z,0
2016-09-15T04:00:22.950Z,0
2016-09-15T04:01:22.616Z,0
2016-09-15T04:02:22.288Z,0
2016-09-15T04:03:22.558Z,0
2016-09-15T04:04:22.831Z,0
2016-09-15T04:05:22.501Z,0
2016-09-15T04:06:22.473Z,0
2016-09-15T04:07:22.745Z,0
2016-09-15T04:08:22.707Z,0
2016-09-15T04:09:22.393Z,0
2016-09-15T04:10:22.645Z,0
2016-09-15T04:11:22.316Z,0
2016-09-15T04:12:21.987Z,0
2016-09-15T04:13:22.552Z,0
2016-09-15T04:14:21.930Z,0
2016-09-15T04:15:22.200Z,0
2016-09-15T04:16:22.156Z,0
2016-09-15T04:17:21.837Z,0
2016-09-15T04:18:22.104Z,0
2016-09-15T04:19:21.764Z,0
2016-09-15T04:20:22.043Z,0
2016-09-15T04:21:21.711Z,0
2016-09-15T04:22:21.680Z,0
2016-09-15T04:23:21.965Z,0
2016-09-15T04:24:22.445Z,0
2016-09-15T04:25:21.584Z,0
2016-09-15T04:26:21.871Z,0
2016-09-15T04:27:21.847Z,0
2016-09-15T04:28:21.800Z,0
2016-09-15T04:29:21.775Z,0
2016-09-15T04:30:22.042Z,0
2016-09-15T04:31:21.411Z,0
2016-09-15T04:32:21.977Z,0
2016-09-15T04:33:21.946Z,0
2016-09-15T04:34:21.627Z,0
2016-09-15T04:35:21.582Z,0
2016-09-15T04:36:21.252Z,0
2016-09-15T04:37:21.534Z,0
2016-09-15T04:38:21.797Z,0
2016-09-15T04:39:21.461Z,0
2016-09-15T04:40:21.128Z,0
2016-09-15T04:41:21.695Z,0
2016-09-15T04:42:21.675Z,0
2016-09-15T04:43:21.345Z,0
2016-09-15T04:44:21.006Z,0
2016-09-15T04:45:21.265Z,0
2016-09-15T04:46:20.946Z,0
2016-09-15T04:47:21.508Z,0
2016-09-15T04:48:21.482Z,0
2016-09-15T04:49:21.152Z,0
2016-09-15T04:50:20.815Z,0
2016-09-15T04:51:21.391Z,5
2016-09-15T04:52:21.364Z,5
2016-09-15T04:53:21.331Z,5
2016-09-15T04:54:21.292Z,5
2016-09-15T04:55:20.660Z,5
2016-09-15T04:56:20.928Z,5
2016-09-15T04:57:20.584Z,10
2016-09-15T04:58:20.570Z,10
2016-09-15T04:59:20.834Z,10
2016-09-15T05:00:20.798Z,10
2016-09-15T05:01:21.080Z,15
2016-09-15T05:02:20.734Z,15
2016-09-15T05:03:20.402Z,15
2016-09-15T05:04:20.070Z,20
2016-09-15T05:05:20.051Z,20
2016-09-15T05:06:20.914Z,25
2016-09-15T05:07:20.892Z,25
2016-09-15T05:08:20.555Z,25
2016-09-15T05:09:20.834Z,30
2016-09-15T05:10:20.790Z,30
2016-09-15T05:11:20.455Z,30
2016-09-15T05:12:20.421Z,30
2016-09-15T05:13:20.392Z,35
2016-09-15T05:14:20.664Z,40
2016-09-15T05:15:20.027Z,40
2016-09-15T05:16:19.983Z,45
2016-09-15T05:17:19.957Z,45
2016-09-15T05:18:20.233Z,50
2016-09-15T05:19:19.590Z,55
2016-09-15T05:20:19.858Z,60
2016-09-15T05:21:20.434Z,60
2016-09-15T05:22:19.803Z,65
2016-09-15T05:23:19.764Z,70
2016-09-15T05:24:20.041Z,75
2016-09-15T05:25:20.306Z,85
2016-09-15T05:26:20.283Z,105
2016-09-15T05:27:19.938Z,115
2016-09-15T05:28:19.912Z,125
2016-09-15T05:29:20.181Z,130
2016-09-15T05:30:19.890Z,135
2016-09-15T05:31:20.113Z,145
2016-09-15T05:32:20.087Z,150
2016-09-15T05:33:20.047Z,160
2016-09-15T05:34:19.116Z,165
2016-09-15T05:35:19.990Z,170
2016-09-15T05:36:19.953Z,170
2016-09-15T05:37:19.634Z,175
2016-09-15T05:38:19.586Z,175
2016-09-15T05:39:18.959Z,185
2016-09-15T05:40:19.524Z,185
2016-09-15T05:41:19.495Z,175
2016-09-15T05:42:19.768Z,180
2016-09-15T05:43:18.834Z,190
2016-09-15T05:44:18.799Z,190
2016-09-15T05:45:19.686Z,230
2016-09-15T05:46:19.344Z,250
2016-09-15T05:47:19.321Z,255
2016-09-15T05:48:18.980Z,265
2016-09-15T05:49:19.257Z,265
2016-09-15T05:50:19.235Z,275
2016-09-15T05:51:19.195Z,275
2016-09-15T05:52:19.466Z,300
2016-09-15T05:53:19.434Z,305
2016-09-15T05:54:19.415Z,315
2016-09-15T05:55:18.765Z,330
2016-09-15T05:56:19.042Z,320
2016-09-15T05:57:18.424Z,330
2016-09-15T05:58:18.695Z,340
2016-09-15T05:59:18.956Z,345
2016-09-15T06:00:18.623Z,345
2016-09-15T06:01:18.899Z,335
2016-09-15T06:02:19.167Z,315
2016-09-15T06:03:18.841Z,300
2016-09-15T06:04:18.805Z,355
2016-09-15T06:05:18.484Z,395
2016-09-15T06:06:18.453Z,410
2016-09-15T06:07:18.123Z,380
2016-09-15T06:08:18.401Z,445
2016-09-15T06:09:18.975Z,450
2016-09-15T06:10:18.640Z,455
2016-09-15T06:11:18.616Z,450
2016-09-15T06:12:18.283Z,465
2016-09-15T06:13:18.251Z,480
2016-09-15T06:14:18.227Z,480
2016-09-15T06:15:18.503Z,495
2016-09-15T06:16:18.782Z,485
2016-09-15T06:17:18.755Z,485
2016-09-15T06:18:17.817Z,475
2016-09-15T06:19:18.101Z,490
2016-09-15T06:20:18.073Z,525
2016-09-15T06:21:18.339Z,545
2016-09-15T06:22:18.009Z,565
2016-09-15T06:23:18.297Z,570
2016-09-15T06:24:17.969Z,590
2016-09-15T06:25:18.229Z,620
2016-09-15T06:26:18.211Z,635
2016-09-15T06:27:18.483Z,645
2016-09-15T06:28:17.864Z,655
2016-09-15T06:29:18.134Z,660
2016-09-15T06:30:18.409Z,660
2016-09-15T06:31:18.088Z,640
2016-09-15T06:32:18.051Z,660
2016-09-15T06:33:17.725Z,675
2016-09-15T06:34:18.300Z,670
2016-09-15T06:35:18.288Z,705
2016-09-15T06:36:18.252Z,725
2016-09-15T06:37:17.924Z,730
2016-09-15T06:38:17.909Z,735
2016-09-15T06:39:18.188Z,750
2016-09-15T06:40:17.850Z,750
2016-09-15T06:41:17.827Z,755
2016-09-15T06:42:18.105Z,765
2016-09-15T06:43:17.473Z,775
2016-09-15T06:44:18.076Z,775
2016-09-15T06:45:18.041Z,770
2016-09-15T06:46:17.719Z,775
2016-09-15T06:47:17.985Z,770
2016-09-15T06:48:17.660Z,770
2016-09-15T06:49:17.642Z,755
2016-09-15T06:50:17.620Z,755
2016-09-15T06:51:16.987Z,745
2016-09-15T06:52:17.280Z,740
2016-09-15T06:53:17.548Z,750
2016-09-15T06:54:17.819Z,760
2016-09-15T06:55:17.797Z,765
2016-09-15T06:56:17.770Z,770
2016-09-15T06:57:17.448Z,780
2016-09-15T06:58:17.131Z,785
2016-09-15T06:59:17.419Z,795
2016-09-15T07:00:17.685Z,800
2016-09-15T07:01:17.370Z,805
2016-09-15T07:02:17.344Z,810
2016-09-15T07:03:17.620Z,795
2016-09-15T07:04:17.298Z,795
2016-09-15T07:05:17.575Z,800
2016-09-15T07:06:17.252Z,800
2016-09-15T07:07:17.237Z,825
2016-09-15T07:08:16.903Z,850
2016-09-15T07:09:16.890Z,860
2016-09-15T07:10:17.162Z,875
2016-09-15T07:11:16.839Z,895
2016-09-15T07:12:17.425Z,905
2016-09-15T07:13:17.404Z,930
2016-09-15T07:14:17.081Z,965
2016-09-15T07:15:17.354Z,985
2016-09-15T07:16:17.047Z,1025
2016-09-15T07:17:17.017Z,1075
2016-09-15T07:18:16.997Z,1125
2016-09-15T07:19:17.290Z,1150
2016-09-15T07:20:16.964Z,1185
2016-09-15T07:21:16.042Z,1205
2016-09-15T07:22:16.912Z,1215
2016-09-15T07:23:16.898Z,1225
2016-09-15T07:24:16.869Z,1235
2016-09-15T07:25:16.857Z,1250
2016-09-15T07:26:16.832Z,1285
2016-09-15T07:27:17.123Z,1290
2016-09-15T07:28:16.796Z,1280
2016-09-15T07:29:16.194Z,1290
2016-09-15T07:30:16.758Z,1310
2016-09-15T07:31:16.744Z,1330
2016-09-15T07:32:16.439Z,1340
2016-09-15T07:33:16.705Z,1345
2016-09-15T07:34:16.982Z,1365
2016-09-15T07:35:16.358Z,1400
2016-09-15T07:36:16.654Z,1405
2016-09-15T07:37:16.925Z,1385
2016-09-15T07:38:16.304Z,1385
2016-09-15T07:39:16.587Z,1400
2016-09-15T07:40:16.568Z,1400
2016-09-15T07:41:16.544Z,1435
2016-09-15T07:42:16.528Z,1445
2016-09-15T07:43:16.815Z,1395
2016-09-15T07:44:16.189Z,1385
2016-09-15T07:45:16.180Z,1270
2016-09-15T07:46:16.144Z,1200
2016-09-15T07:47:16.743Z,970
2016-09-15T07:48:16.415Z,1115
2016-09-15T07:49:16.403Z,1415
2016-09-15T07:50:16.388Z,1455
2016-09-15T07:51:16.362Z,1185
2016-09-15T07:52:16.345Z,1190
2016-09-15T07:53:16.624Z,745
2016-09-15T07:54:16.308Z,490
2016-09-15T07:55:15.994Z,500
2016-09-15T07:56:16.273Z,695
2016-09-15T07:57:16.552Z,640
2016-09-15T07:58:16.238Z,480
2016-09-15T07:59:16.520Z,470
2016-09-15T08:00:16.200Z,470
2016-09-15T08:01:15.880Z,455
2016-09-15T08:02:16.156Z,440
2016-09-15T08:03:16.136Z,470
2016-09-15T08:04:16.417Z,575
2016-09-15T08:05:16.089Z,800
2016-09-15T08:06:16.075Z,1185
2016-09-15T08:07:15.755Z,1375
2016-09-15T08:08:16.037Z,1160
2016-09-15T08:09:16.021Z,1040
2016-09-15T08:10:15.687Z,790
2016-09-15T08:11:15.662Z,695
2016-09-15T08:12:15.647Z,645
2016-09-15T08:13:15.622Z,555
2016-09-15T08:14:15.921Z,560
2016-09-15T08:15:16.180Z,515
2016-09-15T08:16:15.872Z,485
2016-09-15T08:17:15.838Z,425
2016-09-15T08:18:15.515Z,445
2016-09-15T08:19:15.797Z,460
2016-09-15T08:20:15.472Z,540
2016-09-15T08:21:15.448Z,640
2016-09-15T08:22:15.740Z,1185
2016-09-15T08:23:16.018Z,1095
2016-09-15T08:24:15.695Z,765
2016-09-15T08:25:15.361Z,675
2016-09-15T08:26:15.945Z,655
2016-09-15T08:27:15.619Z,625
2016-09-15T08:28:15.602Z,510
2016-09-15T08:29:15.582Z,480
2016-09-15T08:30:15.263Z,460
2016-09-15T08:31:15.833Z,450
2016-09-15T08:32:15.812Z,455
2016-09-15T08:33:15.489Z,515
2016-09-15T08:34:15.164Z,570
2016-09-15T08:35:15.744Z,570
2016-09-15T08:36:15.418Z,475
2016-09-15T08:37:15.394Z,520
2016-09-15T08:38:15.373Z,580
2016-09-15T08:39:15.352Z,540
2016-09-15T08:40:15.026Z,505
2016-09-15T08:41:15.608Z,460
2016-09-15T08:42:14.675Z,485
2016-09-15T08:43:14.955Z,470
2016-09-15T08:44:15.228Z,490
2016-09-15T08:45:14.920Z,505
2016-09-15T08:46:15.180Z,560
2016-09-15T08:47:15.465Z,540
2016-09-15T08:48:15.143Z,520
2016-09-15T08:49:15.114Z,515
2016-09-15T08:50:14.493Z,485
2016-09-15T08:51:14.762Z,475
2016-09-15T08:52:15.043Z,455
2016-09-15T08:53:14.415Z,430
2016-09-15T08:54:14.997Z,400
2016-09-15T08:55:15.267Z,385
2016-09-15T08:56:14.943Z,365
2016-09-15T08:57:14.618Z,350
2016-09-15T08:58:15.198Z,340
2016-09-15T08:59:15.169Z,335
2016-09-15T09:00:14.851Z,330
2016-09-15T09:01:14.824Z,330
2016-09-15T09:02:14.808Z,335
2016-09-15T09:03:14.474Z,345
2016-09-15T09:04:14.760Z,355
2016-09-15T09:05:14.729Z,370
2016-09-15T09:06:14.703Z,415
2016-09-15T09:07:14.078Z,410
2016-09-15T09:08:14.952Z,430
2016-09-15T09:09:14.323Z,495
2016-09-15T09:10:14.597Z,575
2016-09-15T09:11:14.579Z,535
2016-09-15T09:12:14.858Z,570
2016-09-15T09:13:13.920Z,590
2016-09-15T09:14:14.505Z,540
2016-09-15T09:15:14.474Z,470
2016-09-15T09:16:14.750Z,425
2016-09-15T09:17:14.724Z,400
2016-09-15T09:18:14.402Z,380
2016-09-15T09:19:14.666Z,350
2016-09-15T09:20:14.651Z,350
2016-09-15T09:21:14.619Z,335
2016-09-15T09:22:14.303Z,330
2016-09-15T09:23:13.973Z,330
2016-09-15T09:24:13.644Z,325
2016-09-15T09:25:13.923Z,320
2016-09-15T09:26:13.600Z,320
2016-09-15T09:27:14.474Z,325
2016-09-15T09:28:14.158Z,315
2016-09-15T09:29:14.425Z,310
2016-09-15T09:30:13.793Z,310
2016-09-15T09:31:13.774Z,310
2016-09-15T09:32:14.037Z,310
2016-09-15T09:33:14.329Z,310
2016-09-15T09:34:13.691Z,310
2016-09-15T09:35:13.369Z,305
2016-09-15T09:36:13.345Z,305
2016-09-15T09:37:13.613Z,300
2016-09-15T09:38:13.891Z,295
2016-09-15T09:39:13.872Z,285
2016-09-15T09:40:13.544Z,280
2016-09-15T09:41:13.810Z,270
2016-09-15T09:42:13.479Z,265
2016-09-15T09:43:14.062Z,255
2016-09-15T09:44:13.439Z,250
2016-09-15T09:45:14.010Z,255
2016-09-15T09:46:13.397Z,250
2016-09-15T09:47:13.656Z,250
2016-09-15T09:48:13.932Z,245
2016-09-15T09:49:13.913Z,245
2016-09-15T09:50:13.877Z,245
2016-09-15T09:51:13.855Z,250
2016-09-15T09:52:13.829Z,240
2016-09-15T09:53:13.494Z,235
2016-09-15T09:54:13.780Z,230
2016-09-15T09:55:13.144Z,225
2016-09-15T09:56:13.422Z,225
2016-09-15T09:57:12.789Z,220
2016-09-15T09:58:13.670Z,215
2016-09-15T09:59:13.334Z,215
2016-09-15T10:00:13.315Z,210
2016-09-15T10:01:13.289Z,210
2016-09-15T10:02:13.565Z,205
2016-09-15T10:03:13.235Z,200
2016-09-15T10:04:13.213Z,200
2016-09-15T10:05:13.197Z,200
2016-09-15T10:06:13.154Z,205
2016-09-15T10:07:12.833Z,205
2016-09-15T10:08:12.789Z,205
2016-09-15T10:09:12.472Z,200
2016-09-15T10:10:13.043Z,195
2016-09-15T10:11:12.415Z,190
2016-09-15T10:12:13.303Z,185
2016-09-15T10:13:12.973Z,185
2016-09-15T10:14:13.236Z,175
2016-09-15T10:15:13.214Z,170
2016-09-15T10:16:13.190Z,160
2016-09-15T10:17:12.914Z,160
2016-09-15T10:18:12.527Z,160
2016-09-15T10:19:12.510Z,155
2016-09-15T10:20:12.773Z,155
2016-09-15T10:21:13.049Z,160
2016-09-15T10:22:13.020Z,160
2016-09-15T10:23:12.697Z,160
2016-09-15T10:24:12.366Z,165
2016-09-15T10:25:12.939Z,170
2016-09-15T10:26:12.918Z,175
2016-09-15T10:27:12.581Z,180
2016-09-15T10:28:12.554Z,175
2016-09-15T10:29:12.881Z,175
2016-09-15T10:30:12.499Z,170
2016-09-15T10:31:12.471Z,170
2016-09-15T10:32:12.456Z,165
2016-09-15T10:33:12.423Z,160
2016-09-15T10:34:12.385Z,160
2016-09-15T10:35:12.378Z,160
2016-09-15T10:36:12.345Z,160
2016-09-15T10:37:12.011Z,165
2016-09-15T10:38:12.287Z,175
2016-09-15T10:39:11.962Z,170
2016-09-15T10:40:11.923Z,170
2016-09-15T10:41:12.187Z,170
2016-09-15T10:42:12.486Z,170
2016-09-15T10:43:12.438Z,170
2016-09-15T10:44:12.430Z,170
2016-09-15T10:45:11.479Z,175
2016-09-15T10:46:12.068Z,175
2016-09-15T10:47:11.725Z,180
2016-09-15T10:48:11.403Z,185
2016-09-15T10:49:11.980Z,190
2016-09-15T10:50:11.350Z,190
2016-09-15T10:51:11.317Z,195
2016-09-15T10:52:11.891Z,195
2016-09-15T10:53:12.173Z,200
2016-09-15T10:54:12.139Z,205
2016-09-15T10:55:11.808Z,205
2016-09-15T10:56:12.079Z,205
2016-09-15T10:57:11.751Z,210
2016-09-15T10:58:11.429Z,210
2016-09-15T10:59:11.399Z,210
2016-09-15T11:00:11.679Z,210
2016-09-15T11:01:11.937Z,220
2016-09-15T11:02:11.612Z,220
2016-09-15T11:03:11.583Z,225
2016-09-15T11:04:11.254Z,240
2016-09-15T11:05:11.532Z,260
2016-09-15T11:06:11.804Z,275
2016-09-15T11:07:11.173Z,305
2016-09-15T11:08:11.747Z,335
2016-09-15T11:09:11.420Z,370
2016-09-15T11:10:11.104Z,415
2016-09-15T11:11:11.368Z,460
2016-09-15T11:12:11.655Z,470
2016-09-15T11:13:10.711Z,495
2016-09-15T11:14:11.579Z,510
2016-09-15T11:15:10.654Z,495
2016-09-15T11:16:11.230Z,480
2016-09-15T11:17:11.201Z,470
2016-09-15T11:18:11.167Z,445
2016-09-15T11:19:11.143Z,420
2016-09-15T11:20:10.811Z,395
2016-09-15T11:21:11.395Z,385
2016-09-15T11:22:11.366Z,370
2016-09-15T11:23:11.334Z,355
2016-09-15T11:24:11.314Z,350
2016-09-15T11:25:10.683Z,345
2016-09-15T11:26:10.654Z,335
2016-09-15T11:27:11.236Z,315
2016-09-15T11:28:10.597Z,295
2016-09-15T11:29:10.283Z,280
2016-09-15T11:30:10.551Z,260
2016-09-15T11:31:10.829Z,245
2016-09-15T11:32:10.502Z,235
2016-09-15T11:33:10.166Z,215
2016-09-15T11:34:10.742Z,205
2016-09-15T11:35:10.713Z,200
2016-09-15T11:36:10.695Z,190
2016-09-15T11:37:10.976Z,190
2016-09-15T11:38:10.940Z,190
2016-09-15T11:39:10.606Z,190
2016-09-15T11:40:10.588Z,195
2016-09-15T11:41:10.862Z,195
2016-09-15T11:42:10.831Z,195
2016-09-15T11:43:10.805Z,190
2016-09-15T11:44:10.790Z,180
2016-09-15T11:45:10.444Z,170
2016-09-15T11:46:10.723Z,160
2016-09-15T11:47:10.090Z,155
2016-09-15T11:48:10.669Z,150
2016-09-15T11:49:10.048Z,145
2016-09-15T11:50:10.614Z,140
2016-09-15T11:51:09.980Z,135
2016-09-15T11:52:10.260Z,130
2016-09-15T11:53:09.628Z,125
2016-09-15T11:54:10.203Z,125
2016-09-15T11:55:10.179Z,130
2016-09-15T11:56:09.842Z,130
2016-09-15T11:57:10.421Z,135
2016-09-15T11:58:10.392Z,135
2016-09-15T11:59:10.070Z,135
2016-09-15T12:00:09.734Z,135
2016-09-15T12:01:09.713Z,135
2016-09-15T12:02:09.680Z,135
2016-09-15T12:03:09.350Z,130
2016-09-15T12:04:09.623Z,125
2016-09-15T12:05:10.209Z,125
2016-09-15T12:06:09.867Z,120
2016-09-15T12:07:09.537Z,120
2016-09-15T12:08:09.824Z,125
2016-09-15T12:09:10.081Z,125
2016-09-15T12:10:09.763Z,130
2016-09-15T12:11:09.761Z,130
2016-09-15T12:12:09.708Z,130
2016-09-15T12:13:09.375Z,130
2016-09-15T12:14:09.044Z,130
2016-09-15T12:15:09.616Z,130
2016-09-15T12:16:09.892Z,130
2016-09-15T12:17:09.273Z,130
2016-09-15T12:18:08.628Z,135
2016-09-15T12:19:09.508Z,145
2016-09-15T12:20:09.482Z,150
2016-09-15T12:21:09.159Z,155
2016-09-15T12:22:09.424Z,160
2016-09-15T12:23:09.090Z,170
2016-09-15T12:24:09.362Z,175
2016-09-15T12:25:09.635Z,180
2016-09-15T12:26:09.004Z,190
2016-09-15T12:27:09.578Z,185
2016-09-15T12:28:09.557Z,190
2016-09-15T12:29:09.224Z,195
2016-09-15T12:30:09.203Z,195
2016-09-15T12:31:09.467Z,200
2016-09-15T12:32:09.140Z,205
2016-09-15T12:33:09.413Z,220
2016-09-15T12:34:09.388Z,225
2016-09-15T12:35:09.358Z,225
2016-09-15T12:36:09.332Z,225
2016-09-15T12:37:08.695Z,230
2016-09-15T12:38:08.674Z,230
2016-09-15T12:39:08.942Z,230
2016-09-15T12:40:09.221Z,230
2016-09-15T12:41:09.188Z,230
2016-09-15T12:42:09.164Z,230
2016-09-15T12:43:08.833Z,225
2016-09-15T12:44:08.801Z,220
2016-09-15T12:45:08.468Z,215
2016-09-15T12:46:08.448Z,210
2016-09-15T12:47:08.414Z,205
2016-09-15T12:48:08.985Z,200
2016-09-15T12:49:08.371Z,200
2016-09-15T12:50:08.329Z,200
2016-09-15T12:51:08.604Z,205
2016-09-15T12:52:08.579Z,205
2016-09-15T12:53:08.266Z,210
2016-09-15T12:54:08.821Z,220
2016-09-15T12:55:08.185Z,230
2016-09-15T12:56:08.459Z,240
2016-09-15T12:57:08.437Z,260
2016-09-15T12:58:08.710Z,275
2016-09-15T12:59:08.373Z,290
2016-09-15T13:00:08.658Z,305
2016-09-15T13:01:08.019Z,310
2016-09-15T13:02:08.002Z,310
2016-09-15T13:03:07.964Z,305
2016-09-15T13:04:08.544Z,290
2016-09-15T13:05:07.906Z,280
2016-09-15T13:06:08.487Z,270
2016-09-15T13:07:08.157Z,265
2016-09-15T13:08:07.523Z,265
2016-09-15T13:09:08.403Z,260
2016-09-15T13:10:07.468Z,260
2016-09-15T13:11:08.354Z,260
2016-09-15T13:12:08.329Z,260
2016-09-15T13:13:07.990Z,265
2016-09-15T13:14:07.657Z,275
2016-09-15T13:15:07.932Z,280
2016-09-15T13:16:07.908Z,280
2016-09-15T13:17:08.180Z,280
2016-09-15T13:18:07.550Z,275
2016-09-15T13:19:07.526Z,270
2016-09-15T13:20:07.808Z,260
2016-09-15T13:21:08.070Z,255
2016-09-15T13:22:08.051Z,250
2016-09-15T13:23:07.715Z,250
2016-09-15T13:24:07.686Z,245
2016-09-15T13:25:07.966Z,245
2016-09-15T13:26:07.327Z,250
2016-09-15T13:27:07.604Z,255
2016-09-15T13:28:07.581Z,260
2016-09-15T13:29:07.862Z,265
2016-09-15T13:30:07.834Z,265
2016-09-15T13:31:07.499Z,265
2016-09-15T13:32:07.471Z,265
2016-09-15T13:33:07.132Z,270
2016-09-15T13:34:07.425Z,270
2016-09-15T13:35:07.082Z,270
2016-09-15T13:36:07.070Z,275
2016-09-15T13:37:07.335Z,275
2016-09-15T13:38:07.600Z,280
2016-09-15T13:39:07.273Z,280
2016-09-15T13:40:06.952Z,280
2016-09-15T13:41:06.612Z,280
2016-09-15T13:42:07.197Z,290
2016-09-15T13:43:06.569Z,295
2016-09-15T13:44:07.160Z,290
2016-09-15T13:45:06.510Z,285
2016-09-15T13:46:07.088Z,280
2016-09-15T13:47:06.473Z,275
2016-09-15T13:48:07.032Z,270
2016-09-15T13:49:07.305Z,255
2016-09-15T13:50:07.285Z,245
2016-09-15T13:51:07.255Z,235
2016-09-15T13:52:06.922Z,220
2016-09-15T13:53:07.205Z,205
2016-09-15T13:54:06.571Z,200
2016-09-15T13:55:07.145Z,190
2016-09-15T13:56:06.806Z,185
2016-09-15T13:57:07.098Z,175
2016-09-15T13:58:07.067Z,165
2016-09-15T13:59:07.036Z,165
2016-09-15T14:00:06.423Z,160
2016-09-15T14:01:06.670Z,155
2016-09-15T14:02:06.955Z,150
2016-09-15T14:03:06.927Z,150
2016-09-15T14:04:06.597Z,145
2016-09-15T14:05:06.276Z,145
2016-09-15T14:06:06.539Z,145